Terminal Aerodrome Forecast
Issued by NWS

Home | Current Version | Previous Version | Graphics & Text | Print | Product List | Glossary On
Versions: 1 2 3 4 5 6 7 8 9 10 11 12 13 14 15 16 17
000
FTUS43 KFGF 160846 AAA
TAFBJI
TAF AMD
KBJI 160846Z 1609/1706 VRB04KT P6SM VCSH OVC100
      TEMPO 1609/1612 -SHRA BKN080
     FM161200 12006KT P6SM VCSH OVC060
     FM161700 14008KT P6SM VCSH OVC025
     FM162100 VRB04KT P6SM -SHRA OVC020=

USA.gov is the U.S. government's official web portal to all federal, state and local government web resources and services.